createdAt,value
2022-12-03T00:01:03.727Z,5.46
2022-12-03T00:02:35.961Z,5.50
2022-12-03T00:04:07.846Z,5.48
2022-12-03T00:05:41.903Z,5.47
2022-12-03T00:07:21.048Z,5.47
2022-12-03T00:08:52.735Z,5.47
2022-12-03T00:10:24.354Z,5.48
2022-12-03T00:11:55.914Z,5.47
2022-12-03T00:13:27.444Z,5.49
2022-12-03T00:14:59.190Z,5.48
2022-12-03T00:16:30.894Z,5.47
2022-12-03T00:18:02.673Z,5.48
2022-12-03T00:19:34.392Z,5.50
2022-12-03T00:21:06.401Z,5.47
2022-12-03T00:22:38.019Z,5.49
2022-12-03T00:24:09.593Z,5.45
2022-12-03T00:25:41.293Z,5.44
2022-12-03T00:27:13.449Z,5.42
2022-12-03T00:28:45.386Z,5.45
2022-12-03T00:30:17.213Z,5.46
2022-12-03T00:31:49.028Z,5.45
2022-12-03T00:33:21.375Z,5.46
2022-12-03T00:34:53.279Z,5.47
2022-12-03T00:36:25.074Z,5.45
2022-12-03T00:37:56.613Z,5.45
2022-12-03T00:39:28.841Z,5.41
2022-12-03T00:41:01.641Z,5.36
2022-12-03T00:42:33.440Z,5.34
2022-12-03T00:44:05.280Z,5.30
2022-12-03T00:45:36.893Z,5.27
2022-12-03T00:47:08.573Z,5.25
2022-12-03T00:48:40.368Z,5.25
2022-12-03T00:50:12.121Z,5.22
2022-12-03T00:51:44.190Z,5.19
2022-12-03T00:53:15.735Z,5.20
2022-12-03T00:54:47.240Z,5.23
2022-12-03T00:56:21.279Z,5.22
2022-12-03T00:57:52.954Z,5.19
2022-12-03T00:59:24.554Z,5.17
2022-12-03T01:00:56.080Z,5.14
2022-12-03T01:02:27.819Z,5.10
2022-12-03T01:04:00.016Z,5.01
2022-12-03T01:05:32.072Z,4.96
2022-12-03T01:07:03.671Z,4.94
2022-12-03T01:08:35.743Z,4.95
2022-12-03T01:10:08.378Z,4.97
2022-12-03T01:11:41.333Z,5.02
2022-12-03T01:13:13.124Z,5.04
2022-12-03T01:14:44.644Z,5.04
2022-12-03T01:16:16.261Z,5.05
2022-12-03T01:17:48.130Z,5.06
2022-12-03T01:19:19.804Z,5.08
2022-12-03T01:20:51.771Z,5.09
2022-12-03T01:22:23.470Z,5.10
2022-12-03T01:23:56.150Z,5.13
2022-12-03T01:25:28.179Z,5.14
2022-12-03T01:27:01.240Z,5.16
2022-12-03T01:28:33.231Z,5.16
2022-12-03T01:30:05.494Z,5.17
2022-12-03T01:31:55.777Z,5.16
2022-12-03T01:33:27.457Z,5.07
2022-12-03T01:34:59.159Z,5.04
2022-12-03T01:36:30.682Z,5.01
2022-12-03T01:38:02.372Z,4.98
2022-12-03T01:39:34.018Z,5.00
2022-12-03T01:41:11.449Z,5.03
2022-12-03T01:42:43.564Z,5.00
2022-12-03T01:44:19.317Z,4.98
2022-12-03T01:45:51.278Z,4.98
2022-12-03T01:47:24.813Z,4.97
2022-12-03T01:48:56.544Z,4.96
2022-12-03T01:50:30.273Z,4.98
2022-12-03T01:52:02.002Z,4.97
2022-12-03T01:53:33.700Z,4.98
2022-12-03T01:55:06.522Z,5.00
2022-12-03T01:56:38.147Z,5.01
2022-12-03T01:58:10.486Z,5.04
2022-12-03T01:59:42.702Z,5.08
2022-12-03T02:01:15.336Z,5.10
2022-12-03T02:02:47.380Z,5.09
2022-12-03T02:04:19.033Z,5.07
2022-12-03T02:05:51.452Z,5.05
2022-12-03T02:07:26.788Z,5.00
2022-12-03T02:09:00.430Z,4.99
2022-12-03T02:10:32.776Z,4.98
2022-12-03T02:12:04.553Z,4.96
2022-12-03T02:13:36.206Z,4.94
2022-12-03T02:15:08.085Z,4.92
2022-12-03T02:16:39.816Z,4.91
2022-12-03T02:18:11.918Z,4.92
2022-12-03T02:19:43.744Z,4.94
2022-12-03T02:21:15.784Z,4.95
2022-12-03T02:22:56.940Z,4.94
2022-12-03T02:25:10.501Z,4.97
2022-12-03T02:26:47.319Z,4.97
2022-12-03T02:28:23.835Z,5.01
2022-12-03T02:35:27.650Z,4.93
2022-12-03T02:37:00.226Z,4.91
2022-12-03T02:38:31.985Z,4.90
2022-12-03T02:40:04.796Z,4.91
2022-12-03T02:41:55.079Z,4.94
2022-12-03T02:43:26.667Z,4.95
2022-12-03T02:45:03.599Z,4.96
2022-12-03T02:46:36.755Z,5.00
2022-12-03T02:48:09.374Z,4.99
2022-12-03T02:49:41.530Z,4.95
2022-12-03T02:51:13.301Z,4.87
2022-12-03T02:52:45.005Z,4.81
2022-12-03T02:54:16.677Z,4.75
2022-12-03T02:55:48.901Z,4.73
2022-12-03T02:57:20.467Z,4.73
2022-12-03T02:58:52.576Z,4.78
2022-12-03T03:00:24.234Z,4.83
2022-12-03T03:01:56.415Z,4.86
2022-12-03T03:03:28.672Z,4.87
2022-12-03T03:05:00.563Z,4.88
2022-12-03T03:06:32.776Z,4.90
2022-12-03T03:08:05.103Z,4.89
2022-12-03T03:09:36.718Z,4.88
2022-12-03T03:11:08.235Z,4.85
2022-12-03T03:12:39.948Z,4.82
2022-12-03T03:14:11.489Z,4.79
2022-12-03T03:15:43.093Z,4.78
2022-12-03T03:17:14.706Z,4.80
2022-12-03T03:18:46.238Z,4.81
2022-12-03T03:20:18.023Z,4.77
2022-12-03T03:21:49.918Z,4.71
2022-12-03T03:23:22.136Z,4.69
2022-12-03T03:24:53.941Z,4.69
2022-12-03T03:26:25.976Z,4.69
2022-12-03T03:27:57.468Z,4.68
2022-12-03T03:29:29.020Z,4.65
2022-12-03T03:31:04.309Z,4.65
2022-12-03T03:32:35.957Z,4.63
2022-12-03T03:34:07.840Z,4.62
2022-12-03T03:35:40.973Z,4.56
2022-12-03T03:37:12.671Z,4.56
2022-12-03T03:38:44.323Z,4.58
2022-12-03T03:40:15.886Z,4.60
2022-12-03T03:41:47.869Z,4.63
2022-12-03T03:43:22.775Z,4.67
2022-12-03T03:44:54.653Z,4.67
2022-12-03T03:46:26.950Z,4.74
2022-12-03T03:47:58.528Z,4.74
2022-12-03T03:49:30.735Z,4.76
2022-12-03T03:51:03.908Z,4.74
2022-12-03T03:52:39.544Z,4.68
2022-12-03T03:54:15.062Z,4.71
2022-12-03T03:55:50.834Z,4.74
2022-12-03T03:57:27.025Z,4.72
2022-12-03T03:59:02.483Z,4.70
2022-12-03T04:00:38.301Z,4.67
2022-12-03T04:02:21.067Z,4.70
2022-12-03T04:04:00.496Z,4.76
2022-12-03T04:05:36.184Z,4.80
2022-12-03T04:07:12.721Z,4.83
2022-12-03T04:08:48.403Z,4.83
2022-12-03T04:10:46.803Z,4.79
2022-12-03T04:12:39.390Z,4.81
2022-12-03T04:14:36.405Z,4.79
2022-12-03T04:16:13.410Z,4.81
2022-12-03T04:18:08.921Z,4.83
2022-12-03T04:19:44.016Z,4.84
2022-12-03T04:21:49.339Z,4.88
2022-12-03T04:23:30.612Z,4.89
2022-12-03T04:25:24.270Z,4.90
2022-12-03T04:27:21.581Z,4.89
2022-12-03T04:29:02.300Z,4.89
2022-12-03T04:30:38.601Z,4.89
2022-12-03T04:32:32.434Z,4.86
2022-12-03T04:34:24.959Z,4.80
2022-12-03T04:45:33.206Z,4.70
2022-12-03T04:47:07.456Z,4.71
2022-12-03T04:48:39.140Z,4.72
2022-12-03T04:50:10.841Z,4.75
2022-12-03T04:51:42.440Z,4.82
2022-12-03T04:53:13.973Z,4.85
2022-12-03T04:54:45.651Z,4.86
2022-12-03T04:56:17.738Z,4.88
2022-12-03T04:57:49.542Z,4.92
2022-12-03T04:59:21.263Z,4.97
2022-12-03T05:00:52.957Z,5.01
2022-12-03T05:02:24.805Z,5.04
2022-12-03T05:03:56.432Z,5.02
2022-12-03T05:05:28.058Z,5.02
2022-12-03T05:06:59.660Z,5.01
2022-12-03T05:08:31.273Z,5.00
2022-12-03T05:10:02.806Z,5.01
2022-12-03T05:11:34.502Z,5.00
2022-12-03T05:13:06.082Z,4.99
2022-12-03T05:14:37.798Z,4.96
2022-12-03T05:16:09.421Z,4.94
2022-12-03T05:17:41.683Z,4.93
2022-12-03T05:19:13.344Z,4.97
2022-12-03T05:20:51.473Z,5.01
2022-12-03T05:22:25.086Z,5.06
2022-12-03T05:23:56.601Z,5.09
2022-12-03T05:25:28.413Z,5.10
2022-12-03T05:27:00.554Z,5.13
2022-12-03T05:28:32.101Z,5.10
2022-12-03T05:30:03.795Z,5.11
2022-12-03T05:31:35.392Z,5.10
2022-12-03T05:33:06.958Z,5.07
2022-12-03T05:34:38.629Z,5.06
2022-12-03T05:36:10.412Z,5.04
2022-12-03T05:37:42.111Z,5.07
2022-12-03T05:39:13.677Z,5.08
2022-12-03T05:40:45.437Z,5.09
2022-12-03T05:42:35.834Z,5.11
2022-12-03T05:44:07.513Z,5.12
2022-12-03T05:45:39.883Z,5.08
2022-12-03T05:47:11.675Z,5.07
2022-12-03T05:48:43.596Z,5.04
2022-12-03T05:50:15.518Z,5.03
2022-12-03T05:51:46.983Z,5.02
2022-12-03T05:53:18.569Z,5.01
2022-12-03T05:54:50.215Z,5.02
2022-12-03T05:56:21.789Z,5.02
2022-12-03T05:57:53.602Z,5.05
2022-12-03T05:59:25.159Z,5.04
2022-12-03T06:00:56.788Z,5.07
2022-12-03T06:02:28.529Z,5.09
2022-12-03T06:04:00.329Z,5.06
2022-12-03T06:05:31.995Z,5.04
2022-12-03T06:07:03.561Z,5.03
2022-12-03T06:08:35.219Z,5.05
2022-12-03T06:10:07.370Z,5.08
2022-12-03T06:11:40.540Z,5.10
2022-12-03T06:13:11.996Z,5.09
2022-12-03T06:14:43.617Z,5.09
2022-12-03T06:16:15.220Z,5.10
2022-12-03T06:17:46.862Z,5.10
2022-12-03T06:19:18.670Z,5.13
2022-12-03T06:20:50.279Z,5.12
2022-12-03T06:22:22.249Z,5.13
2022-12-03T06:23:54.137Z,5.12
2022-12-03T06:25:25.790Z,5.11
2022-12-03T06:26:57.408Z,5.14
2022-12-03T06:28:29.007Z,5.18
2022-12-03T06:30:00.619Z,5.22
2022-12-03T06:31:32.349Z,5.24
2022-12-03T06:33:04.322Z,5.26
2022-12-03T06:34:35.887Z,5.29
2022-12-03T06:36:07.525Z,5.31
2022-12-03T06:37:39.103Z,5.30
2022-12-03T06:39:13.399Z,5.25
2022-12-03T06:40:45.452Z,5.27
2022-12-03T06:42:17.209Z,5.31
2022-12-03T06:43:49.042Z,5.35
2022-12-03T06:45:20.629Z,5.35
2022-12-03T06:46:52.291Z,5.35
2022-12-03T06:48:24.063Z,5.32
2022-12-03T06:49:55.623Z,5.27
2022-12-03T06:51:27.166Z,5.27
2022-12-03T06:52:58.653Z,5.30
2022-12-03T06:54:30.245Z,5.31
2022-12-03T06:56:01.789Z,5.31
2022-12-03T06:57:33.642Z,5.35
2022-12-03T06:59:05.236Z,5.37
2022-12-03T07:00:36.756Z,5.36
2022-12-03T07:02:23.394Z,5.38
2022-12-03T07:03:58.322Z,5.41
2022-12-03T07:05:34.529Z,5.42
2022-12-03T07:12:35.270Z,5.57
2022-12-03T07:14:08.384Z,5.59
2022-12-03T07:15:39.956Z,5.63
2022-12-03T07:17:11.490Z,5.69
2022-12-03T07:18:43.028Z,5.76
2022-12-03T07:20:14.596Z,5.81
2022-12-03T07:21:46.129Z,5.85
2022-12-03T07:23:17.826Z,5.88
2022-12-03T07:24:49.488Z,5.90
2022-12-03T07:26:25.255Z,5.93
2022-12-03T07:28:00.759Z,5.95
2022-12-03T07:29:36.422Z,5.99
2022-12-03T07:36:20.386Z,6.06
2022-12-03T07:37:52.511Z,6.09
2022-12-03T07:39:30.836Z,6.14
2022-12-03T07:41:07.422Z,6.21
2022-12-03T07:46:35.020Z,6.22
2022-12-03T07:48:06.650Z,6.21
2022-12-03T07:49:38.202Z,6.22
2022-12-03T07:51:12.916Z,6.22
2022-12-03T07:52:46.870Z,6.26
2022-12-03T07:54:18.466Z,6.31
2022-12-03T07:55:50.037Z,6.32
2022-12-03T07:57:21.527Z,6.37
2022-12-03T07:58:53.318Z,6.41
2022-12-03T08:00:24.925Z,6.41
2022-12-03T08:01:56.648Z,6.43
2022-12-03T08:03:28.323Z,6.51
2022-12-03T08:04:59.845Z,6.59
2022-12-03T08:06:31.451Z,6.69
2022-12-03T08:08:02.961Z,6.73
2022-12-03T08:09:34.527Z,6.77
2022-12-03T08:11:06.263Z,6.73
2022-12-03T08:12:41.153Z,6.69
2022-12-03T08:14:19.184Z,6.70
2022-12-03T08:15:50.707Z,6.66
2022-12-03T08:17:22.438Z,6.70
2022-12-03T08:18:55.189Z,6.74
2022-12-03T08:20:29.071Z,6.73
2022-12-03T08:22:01.584Z,6.70
2022-12-03T08:23:33.867Z,6.72
2022-12-03T08:25:28.248Z,6.75
2022-12-03T08:27:00.021Z,6.77
2022-12-03T08:28:32.013Z,6.76
2022-12-03T08:30:03.905Z,6.79
2022-12-03T08:31:35.641Z,6.79
2022-12-03T08:33:13.622Z,6.78
2022-12-03T08:34:45.316Z,6.79
2022-12-03T08:38:19.440Z,6.85
2022-12-03T08:39:55.608Z,6.84
2022-12-03T08:44:30.359Z,6.68
2022-12-03T08:46:02.199Z,6.71
2022-12-03T08:47:37.178Z,6.74
2022-12-03T08:49:13.759Z,6.77
2022-12-03T08:50:50.260Z,6.82
2022-12-03T08:52:26.263Z,6.89
2022-12-03T08:56:33.582Z,6.98
2022-12-03T08:58:20.902Z,7.05
2022-12-03T08:59:58.318Z,7.07
2022-12-03T09:01:30.140Z,7.10
2022-12-03T09:03:01.704Z,7.16
2022-12-03T09:04:36.036Z,7.23
2022-12-03T09:06:08.050Z,7.32
2022-12-03T09:07:39.580Z,7.41
2022-12-03T09:09:11.324Z,7.49
2022-12-03T09:10:42.894Z,7.57
2022-12-03T09:12:14.390Z,7.58
2022-12-03T09:13:46.114Z,7.63
2022-12-03T09:15:18.088Z,7.67
2022-12-03T09:16:50.441Z,7.71
2022-12-03T09:18:22.176Z,7.69
2022-12-03T09:19:54.542Z,7.74
2022-12-03T09:21:26.218Z,7.76
2022-12-03T09:22:58.184Z,7.71
2022-12-03T09:24:29.941Z,7.64
2022-12-03T09:26:01.648Z,7.60
2022-12-03T09:27:33.380Z,7.58
2022-12-03T09:29:10.462Z,7.59
2022-12-03T09:30:44.193Z,7.58
2022-12-03T09:32:18.613Z,7.62
2022-12-03T09:33:50.720Z,7.63
2022-12-03T09:35:22.900Z,7.63
2022-12-03T09:36:54.485Z,7.70
2022-12-03T09:38:26.153Z,7.76
2022-12-03T09:39:57.673Z,7.82
2022-12-03T09:41:29.256Z,7.91
2022-12-03T09:43:01.065Z,7.98
2022-12-03T09:44:33.669Z,8.03
2022-12-03T09:46:10.606Z,8.03
2022-12-03T09:47:47.803Z,8.08
2022-12-03T09:56:45.482Z,8.38
2022-12-03T09:58:18.361Z,8.44
2022-12-03T09:59:50.136Z,8.49
2022-12-03T10:01:21.948Z,8.46
2022-12-03T10:02:57.726Z,8.37
2022-12-03T10:04:34.009Z,8.34
2022-12-03T10:06:19.193Z,8.31
2022-12-03T10:13:14.297Z,8.31
2022-12-03T10:14:46.211Z,8.30
2022-12-03T10:16:18.747Z,8.35
2022-12-03T10:17:51.090Z,8.38
2022-12-03T10:19:24.155Z,8.44
2022-12-03T10:20:55.944Z,8.46
2022-12-03T10:22:27.541Z,8.50
2022-12-03T10:24:18.161Z,8.58
2022-12-03T10:25:53.706Z,8.67
2022-12-03T10:27:30.364Z,8.69
2022-12-03T10:29:02.008Z,8.71
2022-12-03T10:30:33.620Z,8.68
2022-12-03T10:32:06.321Z,8.67
2022-12-03T10:33:41.963Z,8.71
2022-12-03T10:35:17.627Z,8.78
2022-12-03T10:36:51.938Z,8.86
2022-12-03T10:38:23.925Z,8.94
2022-12-03T10:40:09.376Z,8.97
2022-12-03T10:41:41.465Z,8.96
2022-12-03T10:43:13.033Z,9.01
2022-12-03T10:45:07.066Z,9.05
2022-12-03T10:46:43.071Z,9.14
2022-12-03T10:48:30.740Z,9.13
2022-12-03T10:52:30.072Z,9.28
2022-12-03T10:54:01.623Z,9.35
2022-12-03T10:55:35.638Z,9.44
2022-12-03T10:57:08.936Z,9.49
2022-12-03T10:58:40.846Z,9.55
2022-12-03T11:00:16.457Z,9.64
2022-12-03T11:01:48.393Z,9.66
2022-12-03T11:03:24.170Z,9.54
2022-12-03T11:04:56.154Z,9.50
2022-12-03T11:06:30.394Z,9.61
2022-12-03T11:08:02.070Z,9.70
2022-12-03T11:09:33.714Z,9.79
2022-12-03T11:11:09.228Z,9.86
2022-12-03T11:12:44.846Z,10.02
2022-12-03T11:14:38.541Z,10.13
2022-12-03T11:21:19.551Z,10.29
2022-12-03T11:22:55.328Z,10.28
2022-12-03T11:24:27.020Z,10.31
2022-12-03T11:25:58.613Z,10.30
2022-12-03T11:27:31.744Z,10.21
2022-12-03T11:29:03.467Z,10.27
2022-12-03T11:30:56.925Z,10.35
2022-12-03T11:32:44.059Z,10.39
2022-12-03T11:34:15.646Z,10.48
2022-12-03T11:36:05.675Z,10.49
2022-12-03T11:37:37.334Z,10.57
2022-12-03T11:39:48.584Z,10.64
2022-12-03T11:41:22.753Z,10.72
2022-12-03T11:48:02.443Z,10.84
2022-12-03T11:49:38.087Z,10.78
2022-12-03T11:51:19.249Z,10.71
2022-12-03T11:53:06.065Z,10.75
2022-12-03T11:54:42.463Z,10.76
2022-12-03T12:01:26.544Z,10.81
2022-12-03T12:02:58.742Z,10.80
2022-12-03T12:04:34.549Z,10.84
2022-12-03T12:06:09.969Z,10.86
2022-12-03T12:07:41.965Z,10.88
2022-12-03T12:09:13.676Z,10.87
2022-12-03T12:10:46.330Z,10.86
2022-12-03T12:12:36.780Z,10.82
2022-12-03T12:14:08.407Z,10.78
2022-12-03T12:15:40.101Z,10.84
2022-12-03T12:17:30.766Z,10.85
2022-12-03T12:19:20.753Z,10.81
2022-12-03T12:20:52.311Z,10.78
2022-12-03T12:22:26.794Z,10.82
2022-12-03T12:24:19.245Z,10.81
2022-12-03T12:25:58.187Z,10.78
2022-12-03T12:27:47.589Z,10.70
2022-12-03T12:44:42.146Z,10.86
2022-12-03T12:46:45.902Z,10.91
2022-12-03T12:48:14.761Z,10.93
2022-12-03T12:49:51.603Z,10.96
2022-12-03T12:51:24.201Z,10.96
2022-12-03T12:52:58.443Z,10.97
2022-12-03T12:54:30.084Z,11.03
2022-12-03T12:56:01.762Z,11.07
2022-12-03T12:57:33.368Z,11.12
2022-12-03T12:59:18.015Z,11.04
2022-12-03T13:00:53.367Z,11.01
2022-12-03T13:02:34.521Z,11.01
2022-12-03T13:04:16.457Z,10.97
2022-12-03T13:05:48.851Z,10.88
2022-12-03T13:07:20.449Z,10.69
2022-12-03T13:08:52.056Z,10.53
2022-12-03T13:10:23.691Z,10.50
2022-12-03T13:11:59.020Z,10.50
2022-12-03T13:13:30.565Z,10.54
2022-12-03T13:15:02.084Z,10.58
2022-12-03T13:16:33.881Z,10.59
2022-12-03T13:18:22.423Z,10.58
2022-12-03T13:20:03.723Z,10.59
2022-12-03T13:21:39.762Z,10.61
2022-12-03T13:23:23.623Z,10.57
2022-12-03T13:25:01.823Z,10.51
2022-12-03T13:26:40.704Z,10.43
2022-12-03T13:28:16.947Z,10.38
2022-12-03T13:29:54.800Z,10.40
2022-12-03T13:33:51.225Z,10.30
2022-12-03T13:35:24.123Z,10.28
2022-12-03T13:38:47.664Z,10.23
2022-12-03T13:40:21.886Z,10.21
2022-12-03T13:42:12.166Z,10.12
2022-12-03T13:43:44.429Z,10.01
2022-12-03T13:45:16.351Z,9.99
2022-12-03T13:46:48.066Z,9.98
2022-12-03T13:48:32.417Z,9.99
2022-12-03T13:50:07.667Z,10.01
2022-12-03T13:51:39.286Z,10.01
2022-12-03T13:53:22.665Z,9.99
2022-12-03T13:54:55.254Z,9.99
2022-12-03T13:56:27.518Z,9.99
2022-12-03T13:57:59.258Z,9.97
2022-12-03T13:59:30.825Z,9.93
2022-12-03T14:01:02.651Z,9.92
2022-12-03T14:02:34.345Z,9.92
2022-12-03T14:04:05.970Z,9.92
2022-12-03T14:05:37.520Z,9.93
2022-12-03T14:07:09.184Z,9.93
2022-12-03T14:08:40.822Z,9.91
2022-12-03T14:10:12.631Z,9.87
2022-12-03T14:12:02.646Z,9.82
2022-12-03T14:13:34.300Z,9.72
2022-12-03T14:15:07.036Z,9.68
2022-12-03T14:16:38.641Z,9.63
2022-12-03T14:18:10.289Z,9.58
2022-12-03T14:19:41.859Z,9.54
2022-12-03T14:21:13.585Z,9.50
2022-12-03T14:22:45.286Z,9.45
2022-12-03T14:24:16.883Z,9.41
2022-12-03T14:25:48.532Z,9.37
2022-12-03T14:27:20.272Z,9.37
2022-12-03T14:28:51.891Z,9.32
2022-12-03T14:30:23.501Z,9.31
2022-12-03T14:31:55.130Z,9.28
2022-12-03T14:33:26.872Z,9.28
2022-12-03T14:34:58.376Z,9.27
2022-12-03T14:36:30.016Z,9.23
2022-12-03T14:38:01.549Z,9.21
2022-12-03T14:39:33.065Z,9.14
2022-12-03T14:41:04.610Z,9.07
2022-12-03T14:42:36.649Z,9.01
2022-12-03T14:44:08.414Z,8.97
2022-12-03T14:45:40.106Z,8.94
2022-12-03T14:47:11.865Z,8.92
2022-12-03T14:48:43.392Z,8.89
2022-12-03T14:50:14.973Z,8.78
2022-12-03T14:51:46.596Z,8.70
2022-12-03T14:53:21.441Z,8.62
2022-12-03T14:54:56.236Z,8.56
2022-12-03T14:56:31.812Z,8.53
2022-12-03T14:58:34.651Z,8.48
2022-12-03T15:00:10.550Z,8.44
2022-12-03T15:14:34.601Z,8.33
2022-12-03T15:16:06.414Z,8.34
2022-12-03T15:17:38.051Z,8.33
2022-12-03T15:19:09.662Z,8.32
2022-12-03T15:20:41.258Z,8.32
2022-12-03T15:22:12.938Z,8.27
2022-12-03T15:23:44.479Z,8.24
2022-12-03T15:25:16.250Z,8.25
2022-12-03T15:26:47.974Z,8.26
2022-12-03T15:28:19.512Z,8.26
2022-12-03T15:29:51.685Z,8.24
2022-12-03T15:31:23.582Z,8.25
2022-12-03T15:32:55.169Z,8.27
2022-12-03T15:34:27.193Z,8.28
2022-12-03T15:35:58.801Z,8.29
2022-12-03T15:37:30.545Z,8.27
2022-12-03T15:39:02.557Z,8.23
2022-12-03T15:40:34.098Z,8.22
2022-12-03T15:42:05.633Z,8.24
2022-12-03T15:43:37.342Z,8.25
2022-12-03T15:45:13.626Z,8.24
2022-12-03T15:46:47.065Z,8.25
2022-12-03T15:48:19.519Z,8.19
2022-12-03T15:49:52.038Z,8.13
2022-12-03T15:51:24.330Z,8.12
2022-12-03T15:52:56.703Z,8.09
2022-12-03T15:54:29.488Z,8.07
2022-12-03T15:56:02.205Z,8.06
2022-12-03T15:57:33.936Z,8.06
2022-12-03T15:59:06.353Z,8.05
2022-12-03T16:00:38.580Z,8.05
2022-12-03T16:02:11.869Z,8.01
2022-12-03T16:03:44.536Z,8.01
2022-12-03T16:05:17.248Z,8.00
2022-12-03T16:06:50.455Z,8.00
2022-12-03T16:08:22.781Z,7.98
2022-12-03T16:09:55.994Z,7.95
2022-12-03T16:11:29.519Z,7.94
2022-12-03T16:13:02.340Z,7.92
2022-12-03T16:14:34.952Z,7.83
2022-12-03T16:16:07.606Z,7.77
2022-12-03T16:17:40.669Z,7.72
2022-12-03T16:19:13.887Z,7.70
2022-12-03T16:20:47.035Z,7.66
2022-12-03T16:22:20.059Z,7.63
2022-12-03T16:23:52.741Z,7.61
2022-12-03T16:25:26.574Z,7.60
2022-12-03T16:26:58.650Z,7.61
2022-12-03T16:28:31.874Z,7.58
2022-12-03T16:30:07.652Z,7.61
2022-12-03T16:31:40.344Z,7.59
2022-12-03T16:33:13.720Z,7.57
2022-12-03T16:34:47.184Z,7.54
2022-12-03T16:36:21.148Z,7.49
2022-12-03T16:37:53.934Z,7.46
2022-12-03T16:39:26.600Z,7.44
2022-12-03T16:40:59.062Z,7.39
2022-12-03T16:42:31.761Z,7.39
2022-12-03T16:44:04.736Z,7.39
2022-12-03T16:45:46.855Z,7.37
2022-12-03T16:47:19.401Z,7.32
2022-12-03T16:48:57.501Z,7.29
2022-12-03T16:50:30.801Z,7.29
2022-12-03T16:52:03.810Z,7.28
2022-12-03T16:53:36.990Z,7.28
2022-12-03T16:55:09.719Z,7.28
2022-12-03T16:56:44.355Z,7.31
2022-12-03T16:58:19.365Z,7.32
2022-12-03T16:59:51.644Z,7.27
2022-12-03T17:01:24.739Z,7.25
2022-12-03T17:02:56.948Z,7.20
2022-12-03T17:04:29.586Z,7.14
2022-12-03T17:06:02.338Z,7.05
2022-12-03T17:07:34.485Z,7.01
2022-12-03T17:09:07.369Z,6.96
2022-12-03T17:10:39.157Z,6.93
2022-12-03T17:12:11.659Z,6.91
2022-12-03T17:13:43.247Z,6.90
2022-12-03T17:15:14.786Z,6.86
2022-12-03T17:16:46.526Z,6.85
2022-12-03T17:18:18.434Z,6.86
2022-12-03T17:19:50.734Z,6.90
2022-12-03T17:21:22.341Z,6.89
2022-12-03T17:22:53.900Z,6.90
2022-12-03T17:24:25.579Z,6.90
2022-12-03T17:25:57.221Z,6.89
2022-12-03T17:27:30.013Z,6.83
2022-12-03T17:29:01.639Z,6.76
2022-12-03T17:30:33.212Z,6.71
2022-12-03T17:32:05.108Z,6.70
2022-12-03T17:33:36.827Z,6.69
2022-12-03T17:35:08.868Z,6.68
2022-12-03T17:36:40.582Z,6.66
2022-12-03T17:38:12.194Z,6.61
2022-12-03T17:39:43.859Z,6.53
2022-12-03T17:41:15.684Z,6.43
2022-12-03T17:42:47.239Z,6.39
2022-12-03T17:44:21.137Z,6.34
2022-12-03T17:45:53.076Z,6.30
2022-12-03T17:47:24.697Z,6.30
2022-12-03T17:48:57.139Z,6.29
2022-12-03T17:50:28.920Z,6.28
2022-12-03T17:52:00.528Z,6.30
2022-12-03T17:53:32.182Z,6.32
2022-12-03T17:55:15.685Z,6.34
2022-12-03T17:56:53.143Z,6.30
2022-12-03T17:58:24.837Z,6.28
2022-12-03T17:59:57.447Z,6.27
2022-12-03T18:01:29.609Z,6.26
2022-12-03T18:03:01.129Z,6.21
2022-12-03T18:04:32.925Z,6.22
2022-12-03T18:06:04.608Z,6.24
2022-12-03T18:07:36.269Z,6.25
2022-12-03T18:09:08.021Z,6.28
2022-12-03T18:10:39.648Z,6.31
2022-12-03T18:12:11.201Z,6.31
2022-12-03T18:13:42.848Z,6.36
2022-12-03T18:15:14.549Z,6.38
2022-12-03T18:16:46.084Z,6.40
2022-12-03T18:18:17.637Z,6.43
2022-12-03T18:19:49.392Z,6.44
2022-12-03T18:21:21.201Z,6.44
2022-12-03T18:22:52.822Z,6.43
2022-12-03T18:24:24.471Z,6.38
2022-12-03T18:25:56.483Z,6.37
2022-12-03T18:27:28.271Z,6.32
2022-12-03T18:28:59.955Z,6.24
2022-12-03T18:30:31.613Z,6.19
2022-12-03T18:32:03.423Z,6.18
2022-12-03T18:33:35.258Z,6.14
2022-12-03T18:35:07.136Z,6.13
2022-12-03T18:36:38.634Z,6.09
2022-12-03T18:38:11.381Z,6.00
2022-12-03T18:39:43.312Z,6.01
2022-12-03T18:41:14.953Z,6.01
2022-12-03T18:42:46.749Z,6.04
2022-12-03T18:44:18.519Z,6.07
2022-12-03T18:45:50.447Z,6.07
2022-12-03T18:47:23.301Z,6.04
2022-12-03T18:48:55.031Z,6.02
2022-12-03T18:50:26.758Z,6.02
2022-12-03T18:51:59.732Z,6.02
2022-12-03T18:53:31.450Z,6.01
2022-12-03T18:55:03.101Z,5.99
2022-12-03T18:56:34.629Z,5.98
2022-12-03T18:58:06.222Z,6.00
2022-12-03T18:59:37.998Z,5.99
2022-12-03T19:01:29.912Z,5.95
2022-12-03T19:03:03.938Z,5.95
2022-12-03T19:04:35.905Z,6.01
2022-12-03T19:06:16.915Z,6.07
2022-12-03T19:07:55.629Z,6.09
2022-12-03T19:09:28.029Z,6.05
2022-12-03T19:10:59.913Z,6.00
2022-12-03T19:12:32.611Z,5.98
2022-12-03T19:14:09.407Z,5.95
2022-12-03T19:15:45.087Z,5.91
2022-12-03T19:17:19.103Z,5.80
2022-12-03T19:18:57.453Z,5.77
2022-12-03T19:20:33.166Z,5.71
2022-12-03T19:22:10.224Z,5.68
2022-12-03T19:24:04.128Z,5.71
2022-12-03T19:25:40.022Z,5.71
2022-12-03T19:27:11.632Z,5.68
2022-12-03T19:28:43.326Z,5.67
2022-12-03T19:30:14.932Z,5.65
2022-12-03T19:31:46.653Z,5.62
2022-12-03T19:33:18.510Z,5.61
2022-12-03T19:34:50.174Z,5.66
2022-12-03T19:36:23.124Z,5.70
2022-12-03T19:37:55.886Z,5.74
2022-12-03T19:39:27.440Z,5.81
2022-12-03T19:40:58.978Z,5.87
2022-12-03T19:42:31.687Z,5.90
2022-12-03T19:44:07.840Z,5.91
2022-12-03T19:45:42.302Z,5.91
2022-12-03T19:47:13.991Z,5.89
2022-12-03T19:48:45.684Z,5.92
2022-12-03T19:50:22.720Z,5.89
2022-12-03T19:51:55.040Z,5.88
2022-12-03T19:53:27.654Z,5.87
2022-12-03T19:54:59.620Z,5.87
2022-12-03T19:56:31.283Z,5.89
2022-12-03T19:58:02.869Z,5.92
2022-12-03T19:59:34.462Z,5.87
2022-12-03T20:01:09.294Z,5.84
2022-12-03T20:02:41.504Z,5.82
2022-12-03T20:04:13.423Z,5.82
2022-12-03T20:05:44.998Z,5.77
2022-12-03T20:07:16.584Z,5.74
2022-12-03T20:08:48.355Z,5.68
2022-12-03T20:10:19.958Z,5.62
2022-12-03T20:11:51.554Z,5.58
2022-12-03T20:13:23.042Z,5.54
2022-12-03T20:14:54.569Z,5.52
2022-12-03T20:16:26.488Z,5.48
2022-12-03T20:17:58.504Z,5.49
2022-12-03T20:19:30.033Z,5.57
2022-12-03T20:21:02.294Z,5.60
2022-12-03T20:22:33.793Z,5.66
2022-12-03T20:24:05.730Z,5.70
2022-12-03T20:25:37.920Z,5.72
2022-12-03T20:27:09.680Z,5.73
2022-12-03T20:28:42.021Z,5.75
2022-12-03T20:30:13.756Z,5.80
2022-12-03T20:31:52.702Z,5.83
2022-12-03T20:33:25.121Z,5.83
2022-12-03T20:34:56.838Z,5.83
2022-12-03T20:36:28.904Z,5.84
2022-12-03T20:38:00.516Z,5.89
2022-12-03T20:39:32.554Z,5.92
2022-12-03T20:41:05.055Z,5.95
2022-12-03T20:42:36.988Z,5.99
2022-12-03T20:44:09.864Z,6.02
2022-12-03T20:45:41.620Z,6.09
2022-12-03T20:47:13.392Z,6.13
2022-12-03T20:48:45.636Z,6.14
2022-12-03T20:50:17.841Z,6.11
2022-12-03T20:51:50.592Z,6.08
2022-12-03T20:53:25.235Z,6.11
2022-12-03T20:54:57.212Z,6.11
2022-12-03T20:56:32.742Z,6.11
2022-12-03T20:58:04.397Z,6.09
2022-12-03T20:59:37.435Z,6.06
2022-12-03T21:01:15.175Z,6.01
2022-12-03T21:02:47.428Z,5.99
2022-12-03T21:04:19.282Z,5.97
2022-12-03T21:05:51.016Z,5.97
2022-12-03T21:07:22.818Z,5.96
2022-12-03T21:08:55.900Z,5.94
2022-12-03T21:10:38.043Z,5.92
2022-12-03T21:12:11.347Z,5.85
2022-12-03T21:13:44.485Z,5.79
2022-12-03T21:15:17.583Z,5.79
2022-12-03T21:17:07.699Z,5.80
2022-12-03T21:18:41.923Z,5.81
2022-12-03T21:20:16.670Z,5.81
2022-12-03T21:21:54.473Z,5.79
2022-12-03T21:23:26.075Z,5.81
2022-12-03T21:24:58.467Z,5.79
2022-12-03T21:26:32.151Z,5.79
2022-12-03T21:28:10.500Z,5.77
2022-12-03T21:29:45.816Z,5.78
2022-12-03T21:31:20.588Z,5.79
2022-12-03T21:32:53.344Z,5.80
2022-12-03T21:34:27.379Z,5.81
2022-12-03T21:36:01.946Z,5.82
2022-12-03T21:37:36.793Z,5.82
2022-12-03T21:39:08.668Z,5.83
2022-12-03T21:40:42.433Z,5.79
2022-12-03T21:42:33.959Z,5.80
2022-12-03T21:44:08.316Z,5.82
2022-12-03T21:45:40.712Z,5.83
2022-12-03T21:47:14.483Z,5.83
2022-12-03T21:48:49.474Z,5.88
2022-12-03T21:50:21.139Z,5.93
2022-12-03T21:51:53.747Z,5.92
2022-12-03T21:53:26.159Z,5.94
2022-12-03T21:54:57.734Z,5.94
2022-12-03T21:56:31.995Z,5.96
2022-12-03T21:58:04.450Z,5.97
2022-12-03T21:59:38.598Z,5.99
2022-12-03T22:01:13.904Z,6.02
2022-12-03T22:02:45.746Z,6.04
2022-12-03T22:04:19.191Z,6.09
2022-12-03T22:05:50.967Z,6.14
2022-12-03T22:07:23.487Z,6.14
2022-12-03T22:08:56.562Z,6.14
2022-12-03T22:10:28.171Z,6.11
2022-12-03T22:12:02.375Z,6.12
2022-12-03T22:13:33.972Z,6.08
2022-12-03T22:15:06.796Z,6.05
2022-12-03T22:16:38.668Z,6.02
2022-12-03T22:18:10.372Z,5.99
2022-12-03T22:19:44.597Z,5.98
2022-12-03T22:21:18.568Z,5.95
2022-12-03T22:22:50.941Z,5.91
2022-12-03T22:24:25.595Z,5.87
2022-12-03T22:25:57.648Z,5.79
2022-12-03T22:27:31.837Z,5.75